Time;durP1;ratioP1;P1;durP2;ratioP2;P2;SDS_P1;SDS_P2;PMS_P1;PMS_P2;Temp;Humidity;BMP_temperature;BMP_pressure;BME280_temperature;BME280_humidity;BME280_pressure;Samples;Min_cycle;Max_cycle;Signal;HPM_P1;HPM_P2
2023/11/26 00:00:59;;;;;;;19.30;8.10;;;;;;;-1.34;89.26;98807.73;129941;1268;99266;-81
2023/11/26 00:04:25;;;;;;;13.80;7.00;;;;;;;-1.40;89.12;98811.83;129861;1270;99226;-82
2023/11/26 00:07:30;;;;;;;22.20;8.30;;;;;;;-1.46;89.45;98814.91;129978;1269;99155;-81
2023/11/26 00:10:36;;;;;;;25.00;8.70;;;;;;;-1.51;89.19;98819.10;129820;1273;98133;-82
2023/11/26 00:13:41;;;;;;;26.10;9.40;;;;;;;-1.50;89.26;98828.79;129929;1269;98071;-82
2023/11/26 00:16:47;;;;;;;27.30;9.60;;;;;;;-1.48;89.44;98829.31;129887;1274;98026;-81
2023/11/26 00:19:54;;;;;;;32.10;9.40;;;;;;;-1.40;89.25;98831.71;129875;1268;97991;-82
2023/11/26 00:22:59;;;;;;;19.30;7.60;;;;;;;-1.28;89.04;98833.97;129910;1269;97973;-81
2023/11/26 00:26:05;;;;;;;52.80;16.90;;;;;;;-1.25;88.69;98834.98;129986;1269;98013;-81
2023/11/26 00:29:11;;;;;;;26.00;9.80;;;;;;;-1.26;88.79;98842.18;129912;1270;97994;-82
2023/11/26 00:32:16;;;;;;;31.70;10.50;;;;;;;-1.24;88.65;98845.73;129859;1271;99106;-81
2023/11/26 00:35:22;;;;;;;22.60;8.10;;;;;;;-1.24;88.58;98846.05;129930;1269;97991;-81
2023/11/26 00:38:30;;;;;;;42.70;15.00;;;;;;;-1.29;88.39;98854.79;129958;1267;98079;-82
2023/11/26 00:41:36;;;;;;;25.70;9.30;;;;;;;-1.32;88.53;98856.98;129905;1271;98048;-82
2023/11/26 00:44:41;;;;;;;19.10;6.90;;;;;;;-1.38;88.68;98861.41;129866;1270;98777;-82
2023/11/26 00:47:47;;;;;;;19.50;7.50;;;;;;;-1.40;88.68;98867.08;129775;1267;99266;-82
2023/11/26 00:50:53;;;;;;;23.80;9.30;;;;;;;-1.35;88.76;98867.97;129967;1271;98774;-81
2023/11/26 00:53:58;;;;;;;13.40;6.80;;;;;;;-1.28;88.69;98872.16;129865;1267;98026;-80
2023/11/26 00:57:05;;;;;;;15.60;5.70;;;;;;;-1.23;88.63;98874.92;129851;1270;97978;-82
2023/11/26 01:00:12;;;;;;;17.80;6.60;;;;;;;-1.22;88.50;98873.83;129918;1269;99183;-82
2023/11/26 01:03:21;;;;;;;12.50;5.40;;;;;;;-1.21;88.56;98876.03;129843;1270;99107;-81
2023/11/26 01:06:26;;;;;;;11.60;5.90;;;;;;;-1.26;88.47;98874.64;129832;1271;98151;-82
2023/11/26 01:09:32;;;;;;;14.30;5.40;;;;;;;-1.28;88.63;98877.79;129816;1279;99163;-81
2023/11/26 01:12:38;;;;;;;10.40;5.70;;;;;;;-1.31;88.65;98877.96;129858;1267;98086;-82
2023/11/26 01:15:44;;;;;;;10.80;6.20;;;;;;;-1.34;88.77;98879.42;129858;1266;98036;-80
2023/11/26 01:18:49;;;;;;;8.90;5.60;;;;;;;-1.34;88.60;98878.52;129879;1269;97971;-81
2023/11/26 01:21:55;;;;;;;8.50;5.30;;;;;;;-1.36;88.54;98876.59;129896;1271;97997;-82
2023/11/26 01:25:00;;;;;;;12.20;6.20;;;;;;;-1.41;88.27;98871.36;129901;1270;98051;-82
2023/11/26 01:28:06;;;;;;;8.20;4.40;;;;;;;-1.43;88.39;98874.09;129921;1270;97975;-82
2023/11/26 01:31:12;;;;;;;9.60;5.20;;;;;;;-1.42;88.20;98876.69;129941;1270;99157;-81
2023/11/26 01:34:17;;;;;;;11.40;6.00;;;;;;;-1.42;88.31;98878.41;129871;1273;99180;-82
2023/11/26 01:37:23;;;;;;;8.00;5.00;;;;;;;-1.41;88.30;98881.48;129931;1269;97980;-81
2023/11/26 01:40:29;;;;;;;8.90;5.40;;;;;;;-1.37;88.47;98892.00;129962;1270;98790;-81
2023/11/26 01:43:35;;;;;;;9.30;5.10;;;;;;;-1.35;88.13;98892.25;129935;1282;98004;-81
2023/11/26 01:46:41;;;;;;;10.90;5.50;;;;;;;-1.35;88.25;98894.13;129637;1272;97985;-82
2023/11/26 01:49:48;;;;;;;11.10;6.50;;;;;;;-1.30;88.15;98896.38;129806;1267;97968;-81
2023/11/26 01:52:55;;;;;;;10.70;5.90;;;;;;;-1.24;88.12;98898.41;129802;1272;98112;-81
2023/11/26 01:56:02;;;;;;;8.20;4.00;;;;;;;-1.20;88.13;98900.20;129854;1283;99078;-80
2023/11/26 01:59:08;;;;;;;10.50;5.90;;;;;;;-1.20;87.81;98897.77;129772;1280;98047;-80
2023/11/26 02:02:13;;;;;;;9.60;5.40;;;;;;;-1.20;88.00;98900.17;129709;1272;97978;-81
2023/11/26 02:05:19;;;;;;;9.40;5.40;;;;;;;-1.18;88.06;98905.80;129904;1269;98125;-81
2023/11/26 02:08:26;;;;;;;8.70;5.40;;;;;;;-1.16;88.12;98905.15;129947;1271;98007;-81
2023/11/26 02:11:32;;;;;;;10.30;4.80;;;;;;;-1.19;88.36;98901.53;129894;1272;98017;-80
2023/11/26 02:14:38;;;;;;;11.70;7.30;;;;;;;-1.15;88.22;98907.00;129854;1271;98053;-82
2023/11/26 02:17:44;;;;;;;9.40;5.10;;;;;;;-1.15;88.01;98909.30;129902;1270;99237;-81
2023/11/26 02:20:49;;;;;;;14.30;8.20;;;;;;;-1.18;87.82;98904.06;129877;1272;98384;-82
2023/11/26 02:23:55;;;;;;;12.80;6.20;;;;;;;-1.17;87.81;98908.92;129905;1267;98019;-81
2023/11/26 02:27:00;;;;;;;8.90;5.70;;;;;;;-1.23;87.76;98917.02;129869;1267;97963;-81
2023/11/26 02:30:10;;;;;;;13.10;7.20;;;;;;;-1.31;88.23;98913.73;129932;1270;99169;-81
2023/11/26 02:33:16;;;;;;;8.90;4.90;;;;;;;-1.34;88.47;98919.36;129867;1270;99139;-81
2023/11/26 02:36:21;;;;;;;12.80;7.70;;;;;;;-1.35;88.43;98915.58;129941;1270;99167;-81
2023/11/26 02:39:28;;;;;;;12.10;7.40;;;;;;;-1.29;88.30;98918.69;129879;1267;98017;-81
2023/11/26 02:42:34;;;;;;;16.40;9.10;;;;;;;-1.25;88.40;98919.20;129917;1272;98004;-81
2023/11/26 02:45:40;;;;;;;9.20;5.40;;;;;;;-1.20;88.24;98916.61;129884;1271;98753;-81
2023/11/26 02:48:46;;;;;;;11.50;6.30;;;;;;;-1.19;88.22;98920.55;129808;1271;97987;-82
2023/11/26 02:51:52;;;;;;;10.70;6.40;;;;;;;-1.24;88.31;98919.18;130011;1271;98743;-81
2023/11/26 02:54:57;;;;;;;12.20;6.50;;;;;;;-1.26;88.38;98921.76;129928;1270;99269;-79
2023/11/26 02:58:03;;;;;;;11.70;6.70;;;;;;;-1.24;88.41;98924.75;129875;1267;98004;-80
2023/11/26 03:01:08;;;;;;;11.20;5.50;;;;;;;-1.22;88.26;98927.22;129887;1267;98118;-81
2023/11/26 03:04:19;;;;;;;10.20;5.20;;;;;;;-1.21;88.44;98927.13;129929;1271;98157;-81
2023/11/26 03:07:31;;;;;;;10.80;6.20;;;;;;;-1.22;88.40;98928.42;130044;1270;99056;-80
2023/11/26 03:13:59;;;;;;;13.10;6.40;;;;;;;-1.31;88.60;98928.06;129969;1270;98204;-81
2023/11/26 03:17:05;;;;;;;17.30;8.70;;;;;;;-1.36;88.56;98926.99;130160;1265;98011;-82
2023/11/26 03:20:16;;;;;;;16.00;7.40;;;;;;;-1.33;88.72;98930.31;130057;1271;97960;-81
2023/11/26 03:23:24;;;;;;;15.50;7.50;;;;;;;-1.26;88.66;98932.23;130090;1281;98706;-80
2023/11/26 03:26:30;;;;;;;17.30;8.60;;;;;;;-1.24;88.27;98934.52;130118;1267;99075;-82
2023/11/26 03:29:36;;;;;;;12.10;5.30;;;;;;;-1.23;88.16;98933.75;130031;1267;98567;-81
2023/11/26 03:32:42;;;;;;;22.70;10.10;;;;;;;-1.16;88.39;98933.43;130005;1270;97997;-81
2023/11/26 03:35:48;;;;;;;8.30;4.20;;;;;;;-1.13;88.21;98937.42;129877;1270;99202;-81
2023/11/26 03:38:54;;;;;;;13.60;6.30;;;;;;;-1.12;88.08;98942.38;129979;1267;97971;-82
2023/11/26 03:41:59;;;;;;;9.30;4.40;;;;;;;-1.18;87.86;98944.91;129847;1272;97959;-82
2023/11/26 03:45:06;;;;;;;7.80;4.00;;;;;;;-1.26;88.00;98950.88;129912;1270;99154;-82
2023/11/26 03:48:11;;;;;;;7.90;4.60;;;;;;;-1.27;88.30;98950.95;129690;1278;98055;-81
2023/11/26 03:51:21;;;;;;;7.00;3.50;;;;;;;-1.28;87.87;98953.85;129874;1271;99190;-81
2023/11/26 03:54:27;;;;;;;8.20;3.90;;;;;;;-1.32;87.69;98948.19;129901;1270;98762;-82
2023/11/26 03:57:32;;;;;;;8.60;4.50;;;;;;;-1.29;87.82;98950.39;129788;1267;98061;-83
2023/11/26 04:00:38;;;;;;;13.40;6.60;;;;;;;-1.25;88.07;98955.14;129852;1266;99050;-82
2023/11/26 04:03:44;;;;;;;7.90;3.40;;;;;;;-1.29;87.85;98954.42;129909;1271;98800;-81
2023/11/26 04:06:50;;;;;;;8.30;4.10;;;;;;;-1.39;87.85;98959.85;129895;1283;98657;-82
2023/11/26 04:09:55;;;;;;;7.30;3.70;;;;;;;-1.48;87.67;98959.93;129953;1267;98004;-82
2023/11/26 04:13:01;;;;;;;7.30;3.00;;;;;;;-1.54;87.66;98962.81;129864;1270;98045;-81
2023/11/26 04:16:11;;;;;;;6.70;2.90;;;;;;;-1.66;87.84;98966.98;129928;1270;99183;-81
2023/11/26 04:19:18;;;;;;;12.70;5.70;;;;;;;-1.76;88.06;98969.08;129900;1267;98781;-81
2023/11/26 04:22:25;;;;;;;7.90;4.10;;;;;;;-1.78;87.94;98970.92;129849;1270;98018;-81
2023/11/26 04:25:30;;;;;;;17.50;7.20;;;;;;;-1.79;88.11;98975.86;129923;1270;99180;-81
2023/11/26 04:28:36;;;;;;;9.70;4.30;;;;;;;-1.78;87.79;98978.96;129917;1270;98003;-81
2023/11/26 04:31:43;;;;;;;8.00;4.00;;;;;;;-1.77;87.88;98980.15;129925;1268;98042;-81
2023/11/26 04:34:48;;;;;;;11.30;6.30;;;;;;;-1.75;87.94;98981.08;129866;1270;98126;-82
2023/11/26 04:37:55;;;;;;;4.70;3.10;;;;;;;-1.76;88.03;98981.81;129896;1266;97975;-81
2023/11/26 04:41:01;;;;;;;8.20;3.90;;;;;;;-1.79;88.02;98986.89;129995;1265;98069;-80
2023/11/26 04:44:07;;;;;;;5.20;3.00;;;;;;;-1.83;88.21;98993.98;130224;1266;98217;-81
2023/11/26 04:47:13;;;;;;;7.20;3.60;;;;;;;-1.82;87.95;99009.02;130179;1270;97996;-82
2023/11/26 04:50:18;;;;;;;8.90;4.10;;;;;;;-1.78;88.18;99007.73;130761;1267;98087;-82
2023/11/26 04:53:24;;;;;;;7.20;4.60;;;;;;;-1.71;88.09;99006.91;130177;1267;97983;-82
2023/11/26 04:56:30;;;;;;;16.90;7.10;;;;;;;-1.61;88.14;99009.02;129918;1270;98002;-81
2023/11/26 04:59:37;;;;;;;12.60;5.90;;;;;;;-1.54;87.52;99006.92;129903;1267;98010;-81
2023/11/26 05:02:43;;;;;;;7.40;3.90;;;;;;;-1.55;87.43;99013.67;129909;1270;98778;-81
2023/11/26 05:05:49;;;;;;;9.00;4.70;;;;;;;-1.60;87.34;99021.50;129904;1267;98035;-81
2023/11/26 05:08:54;;;;;;;9.00;4.10;;;;;;;-1.68;87.76;99033.23;129935;1270;98043;-81
2023/11/26 05:12:02;;;;;;;10.60;5.20;;;;;;;-1.68;87.79;99035.64;129890;1270;98047;-81
2023/11/26 05:15:08;;;;;;;7.40;3.60;;;;;;;-1.65;87.80;99034.52;129901;1267;97968;-81
2023/11/26 05:18:15;;;;;;;9.00;4.60;;;;;;;-1.62;87.58;99040.63;129877;1269;98060;-82
2023/11/26 05:21:20;;;;;;;25.10;12.70;;;;;;;-1.62;87.77;99041.30;129858;1269;99164;-82
2023/11/26 05:24:26;;;;;;;18.00;9.10;;;;;;;-1.59;87.81;99045.98;129914;1267;98062;-81
2023/11/26 05:27:32;;;;;;;23.00;11.30;;;;;;;-1.60;87.20;99048.52;129865;1271;99176;-81
2023/11/26 05:30:38;;;;;;;8.00;4.60;;;;;;;-1.64;87.50;99057.18;129835;1267;98065;-82
2023/11/26 05:33:44;;;;;;;14.60;8.20;;;;;;;-1.68;87.79;99049.25;129908;1267;97977;-81
2023/11/26 05:36:50;;;;;;;12.50;4.70;;;;;;;-1.69;87.86;99055.23;129902;1267;98163;-81
2023/11/26 05:39:55;;;;;;;8.30;4.80;;;;;;;-1.69;87.72;99062.18;129938;1268;98499;-80
2023/11/26 05:43:02;;;;;;;17.30;8.50;;;;;;;-1.69;87.92;99064.66;129903;1267;99049;-81
2023/11/26 05:46:09;;;;;;;26.50;10.90;;;;;;;-1.71;87.95;99069.98;129922;1271;98033;-81
2023/11/26 05:49:14;;;;;;;16.10;7.80;;;;;;;-1.74;88.17;99070.73;129949;1270;98143;-82
2023/11/26 05:52:21;;;;;;;13.30;7.80;;;;;;;-1.74;88.37;99082.24;129877;1268;97978;-81
2023/11/26 05:55:26;;;;;;;9.80;5.80;;;;;;;-1.77;88.54;99088.21;129915;1270;99179;-80
2023/11/26 05:58:32;;;;;;;21.30;9.00;;;;;;;-1.78;88.27;99086.18;129842;1277;97997;-81
2023/11/26 06:01:38;;;;;;;12.80;7.30;;;;;;;-1.77;88.71;99095.17;129921;1267;98400;-81
2023/11/26 06:04:43;;;;;;;16.90;9.30;;;;;;;-1.79;88.53;99101.91;129825;1270;97985;-81
2023/11/26 06:07:49;;;;;;;54.60;26.50;;;;;;;-1.80;88.33;99107.92;129883;1270;98062;-81
2023/11/26 06:10:54;;;;;;;70.80;27.60;;;;;;;-1.76;88.36;99114.63;129896;1270;98035;-82
2023/11/26 06:14:00;;;;;;;46.10;24.20;;;;;;;-1.75;88.43;99121.51;129851;1269;98007;-81
2023/11/26 06:17:05;;;;;;;60.40;25.00;;;;;;;-1.81;88.22;99124.19;129896;1270;97980;-81
2023/11/26 06:20:13;;;;;;;9.80;5.80;;;;;;;-1.79;88.42;99128.45;130373;1269;99160;-81
2023/11/26 06:23:19;;;;;;;50.00;28.10;;;;;;;-1.81;88.55;99136.05;129856;1267;98575;-82
2023/11/26 06:26:25;;;;;;;23.10;13.10;;;;;;;-1.83;88.49;99139.69;130035;1270;98086;-82
2023/11/26 06:29:30;;;;;;;10.90;7.80;;;;;;;-1.83;88.18;99147.33;129817;1267;99221;-82
2023/11/26 06:32:37;;;;;;;34.70;18.40;;;;;;;-1.77;88.52;99152.70;129751;1265;98003;-81
2023/11/26 06:35:43;;;;;;;17.00;10.80;;;;;;;-1.73;88.46;99152.79;129871;1270;98019;-79
2023/11/26 06:38:48;;;;;;;10.40;6.70;;;;;;;-1.69;88.55;99154.80;129856;1270;97998;-81
2023/11/26 06:41:54;;;;;;;14.30;8.10;;;;;;;-1.65;88.37;99161.11;130046;1270;98663;-80
2023/11/26 06:45:00;;;;;;;10.70;6.40;;;;;;;-1.62;88.12;99156.58;129910;1267;98557;-83
2023/11/26 06:48:07;;;;;;;14.40;9.80;;;;;;;-1.64;87.92;99164.89;129878;1268;98442;-77
2023/11/26 06:51:13;;;;;;;10.40;6.20;;;;;;;-1.62;88.16;99176.82;129667;1271;99078;-76
2023/11/26 06:54:19;;;;;;;9.90;5.70;;;;;;;-1.61;88.01;99180.58;129682;1267;99166;-80
2023/11/26 06:57:24;;;;;;;9.00;5.20;;;;;;;-1.62;88.01;99188.14;129881;1270;99072;-76
2023/11/26 07:00:31;;;;;;;10.00;5.20;;;;;;;-1.61;88.05;99192.27;129650;1269;98201;-76
2023/11/26 07:03:37;;;;;;;7.60;4.80;;;;;;;-1.62;87.91;99203.27;129729;1270;98072;-76
2023/11/26 07:06:44;;;;;;;8.90;5.60;;;;;;;-1.66;87.98;99198.14;129752;1265;99144;-77
2023/11/26 07:09:49;;;;;;;5.80;3.80;;;;;;;-1.68;87.87;99207.06;129694;1268;97994;-77
2023/11/26 07:12:57;;;;;;;76.20;31.00;;;;;;;-1.71;88.04;99207.08;129719;1270;99152;-77
2023/11/26 07:16:06;;;;;;;13.00;8.50;;;;;;;-1.70;87.98;99218.14;129721;1267;97991;-84
2023/11/26 07:19:12;;;;;;;80.80;31.00;;;;;;;-1.68;87.91;99220.94;130022;1270;99211;-83
2023/11/26 07:22:18;;;;;;;97.20;35.90;;;;;;;-1.65;87.81;99226.36;129883;1267;98106;-78
2023/11/26 07:25:23;;;;;;;20.40;10.20;;;;;;;-1.68;87.73;99230.58;130003;1267;97971;-83
2023/11/26 07:28:29;;;;;;;11.20;6.00;;;;;;;-1.72;87.94;99233.83;130066;1270;98059;-84
2023/11/26 07:31:35;;;;;;;118.90;36.10;;;;;;;-1.74;88.18;99239.84;129913;1267;97977;-83
2023/11/26 07:34:44;;;;;;;9.70;5.40;;;;;;;-1.68;88.44;99250.23;129978;1267;98044;-84
2023/11/26 07:37:50;;;;;;;21.80;8.80;;;;;;;-1.67;88.29;99251.74;129875;1267;97998;-83
2023/11/26 07:40:55;;;;;;;63.20;19.90;;;;;;;-1.64;88.02;99249.48;129907;1270;99160;-83
2023/11/26 07:44:01;;;;;;;13.40;7.10;;;;;;;-1.61;88.21;99249.95;129927;1269;98059;-83
2023/11/26 07:47:08;;;;;;;14.10;7.20;;;;;;;-1.63;88.32;99253.60;129921;1270;97997;-83
2023/11/26 07:50:13;;;;;;;8.80;5.20;;;;;;;-1.62;88.44;99260.36;129920;1270;98077;-83
2023/11/26 07:53:19;;;;;;;9.20;5.50;;;;;;;-1.66;88.28;99259.19;129838;1270;99157;-84
2023/11/26 07:56:24;;;;;;;8.90;5.00;;;;;;;-1.66;88.28;99259.20;129919;1267;98071;-82
2023/11/26 07:59:30;;;;;;;10.60;5.90;;;;;;;-1.60;88.40;99257.61;129941;1270;97990;-82
2023/11/26 08:02:36;;;;;;;7.90;5.10;;;;;;;-1.54;88.36;99263.15;129882;1266;99192;-83
2023/11/26 08:05:43;;;;;;;11.80;7.50;;;;;;;-1.48;88.28;99266.44;129906;1267;98479;-84
2023/11/26 08:08:48;;;;;;;11.40;5.80;;;;;;;-1.43;88.39;99266.20;129823;1270;99071;-84
2023/11/26 08:11:57;;;;;;;22.20;12.60;;;;;;;-1.42;88.30;99266.67;129845;1270;99157;-83
2023/11/26 08:15:05;;;;;;;9.30;6.40;;;;;;;-1.39;88.25;99268.91;129867;1269;98017;-84
2023/11/26 08:18:11;;;;;;;11.70;7.00;;;;;;;-1.31;88.33;99272.92;129877;1267;98666;-83
2023/11/26 08:21:17;;;;;;;9.60;6.60;;;;;;;-1.23;88.25;99276.06;130003;1267;98006;-82
2023/11/26 08:24:24;;;;;;;19.70;11.90;;;;;;;-1.19;87.67;99276.00;130094;1267;97993;-84
2023/11/26 08:27:29;;;;;;;12.20;7.80;;;;;;;-1.12;88.12;99277.69;130093;1267;97999;-83
2023/11/26 08:30:41;;;;;;;16.30;9.00;;;;;;;-1.09;88.02;99278.45;129911;1270;97968;-84
2023/11/26 08:33:48;;;;;;;24.70;12.70;;;;;;;-1.04;88.03;99275.85;130233;1267;98704;-84
2023/11/26 08:36:54;;;;;;;12.50;7.30;;;;;;;-1.04;87.39;99278.14;129921;1266;98061;-83
2023/11/26 08:39:59;;;;;;;10.50;6.40;;;;;;;-1.06;87.45;99279.16;130190;1266;97998;-82
2023/11/26 08:43:10;;;;;;;22.80;13.80;;;;;;;-1.04;87.62;99278.79;129874;1265;97993;-81
2023/11/26 08:46:16;;;;;;;12.90;8.50;;;;;;;-0.97;87.81;99281.13;129947;1270;97994;-81
2023/11/26 08:49:23;;;;;;;12.90;7.80;;;;;;;-0.95;87.57;99284.67;130002;1267;98411;-82
2023/11/26 08:52:30;;;;;;;16.60;10.70;;;;;;;-0.95;87.58;99292.52;129849;1270;99192;-81
2023/11/26 08:55:36;;;;;;;16.10;9.60;;;;;;;-0.99;87.40;99297.38;129910;1269;99172;-82
2023/11/26 08:58:42;;;;;;;12.80;7.50;;;;;;;-1.05;87.53;99298.59;129854;1267;98031;-79
2023/11/26 09:01:48;;;;;;;13.70;7.60;;;;;;;-1.03;87.79;99300.91;129631;1282;99097;-76
2023/11/26 09:04:53;;;;;;;10.70;7.10;;;;;;;-0.92;87.80;99299.48;129721;1267;98672;-79
2023/11/26 09:07:59;;;;;;;10.60;6.60;;;;;;;-0.73;87.87;99300.66;129764;1267;98059;-76
2023/11/26 09:11:05;;;;;;;14.40;8.90;;;;;;;-0.62;87.25;99295.40;129670;1265;99052;-78
2023/11/26 09:14:10;;;;;;;21.80;12.40;;;;;;;-0.52;87.13;99295.35;129674;1269;99129;-80
2023/11/26 09:17:16;;;;;;;13.90;8.50;;;;;;;-0.44;86.72;99293.77;129940;1267;99257;-80
2023/11/26 09:20:21;;;;;;;11.70;6.10;;;;;;;-0.38;86.85;99298.43;129633;1270;98007;-76
2023/11/26 09:23:28;;;;;;;15.00;7.10;;;;;;;-0.32;86.27;99300.65;129713;1269;98049;-84
2023/11/26 09:26:34;;;;;;;15.20;8.40;;;;;;;-0.16;86.98;99300.89;129987;1267;98707;-86
2023/11/26 09:29:39;;;;;;;11.20;5.80;;;;;;;0.08;85.86;99300.77;129957;1265;99072;-85
2023/11/26 09:32:45;;;;;;;13.20;7.40;;;;;;;0.07;85.43;99297.89;130003;1270;98029;-85
2023/11/26 09:35:50;;;;;;;12.70;7.10;;;;;;;0.18;85.61;99297.42;129907;1269;98102;-84
2023/11/26 09:38:56;;;;;;;17.90;9.50;;;;;;;0.22;84.11;99303.08;129963;1270;98748;-82
2023/11/26 09:42:02;;;;;;;11.70;6.70;;;;;;;0.24;84.14;99299.45;129987;1267;98366;-85
2023/11/26 09:45:12;;;;;;;11.10;5.40;;;;;;;0.29;85.35;99297.17;129878;1267;98003;-84
2023/11/26 09:48:17;;;;;;;11.60;6.30;;;;;;;0.39;84.04;99298.54;129908;1269;99185;-84
2023/11/26 09:51:25;;;;;;;9.70;5.30;;;;;;;0.27;83.55;99293.83;129926;1267;98067;-86
2023/11/26 09:54:31;;;;;;;31.60;15.10;;;;;;;0.20;84.51;99289.23;129943;1267;98113;-85
2023/11/26 09:57:37;;;;;;;9.30;5.40;;;;;;;0.25;84.72;99289.05;130380;1266;98083;-81
2023/11/26 10:00:43;;;;;;;18.70;10.20;;;;;;;0.24;84.19;99287.23;130150;1267;99084;-80
2023/11/26 10:04:00;;;;;;;18.80;11.30;;;;;;;0.22;83.96;99285.98;129932;1267;97997;-83
2023/11/26 10:07:06;;;;;;;14.00;7.70;;;;;;;0.19;83.42;99284.60;129917;1267;98090;-82
2023/11/26 10:10:15;;;;;;;7.10;4.80;;;;;;;0.15;83.95;99289.06;129970;1265;97981;-82
2023/11/26 10:13:24;;;;;;;20.70;10.10;;;;;;;0.16;83.26;99290.08;129911;1270;98179;-82
2023/11/26 10:16:33;;;;;;;13.80;8.20;;;;;;;0.20;82.97;99292.78;129947;1270;97994;-80
2023/11/26 10:19:40;;;;;;;14.70;8.10;;;;;;;0.28;83.03;99291.11;129681;1270;98001;-79
2023/11/26 10:22:48;;;;;;;6.50;4.20;;;;;;;0.33;83.28;99293.20;129848;1265;98037;-81
2023/11/26 10:25:55;;;;;;;13.40;7.70;;;;;;;0.32;83.19;99291.02;130203;1265;99133;-79
2023/11/26 10:29:08;;;;;;;14.60;8.80;;;;;;;0.36;82.19;99293.17;130340;1268;97969;-83
2023/11/26 10:32:16;;;;;;;8.90;5.50;;;;;;;0.41;83.32;99291.94;130539;1267;99193;-81
2023/11/26 10:35:23;;;;;;;9.90;6.00;;;;;;;0.54;83.03;99291.86;130129;1270;98022;-79
2023/11/26 10:38:34;;;;;;;37.80;22.50;;;;;;;0.59;82.37;99294.45;130000;1269;97953;-79
2023/11/26 10:41:42;;;;;;;13.40;8.80;;;;;;;0.61;81.85;99299.95;130090;1268;98068;-84
2023/11/26 10:44:51;;;;;;;10.00;6.30;;;;;;;0.58;82.28;99298.52;130034;1267;99202;-84
2023/11/26 10:48:01;;;;;;;34.40;12.60;;;;;;;0.53;81.26;99300.66;130008;1269;98525;-82
2023/11/26 10:51:18;;;;;;;28.30;12.10;;;;;;;0.50;80.98;99303.02;130073;1265;98555;-86
2023/11/26 10:54:32;;;;;;;15.50;8.60;;;;;;;0.50;80.70;99301.60;130184;1270;99189;-84
2023/11/26 10:57:41;;;;;;;10.10;5.50;;;;;;;0.44;80.35;99294.89;130217;1269;98478;-80
2023/11/26 11:00:52;;;;;;;9.40;5.30;;;;;;;0.50;81.05;99288.67;130031;1267;99184;-83
2023/11/26 11:03:59;;;;;;;13.80;8.10;;;;;;;0.65;81.32;99287.34;130021;1267;98515;-83
2023/11/26 11:07:05;;;;;;;11.50;6.30;;;;;;;0.66;79.96;99290.84;129958;1265;98026;-84
2023/11/26 11:10:22;;;;;;;13.80;8.40;;;;;;;0.46;79.99;99278.77;130022;1266;97952;-83
2023/11/26 11:13:30;;;;;;;26.40;13.70;;;;;;;0.43;80.45;99291.10;130003;1267;98553;-84
2023/11/26 11:16:37;;;;;;;19.60;10.50;;;;;;;0.40;80.76;99290.23;129945;1271;98740;-84
2023/11/26 11:19:55;;;;;;;19.40;11.20;;;;;;;0.41;80.11;99300.69;129902;1269;99186;-83
2023/11/26 11:23:00;;;;;;;103.80;53.50;;;;;;;0.38;79.61;99310.80;130265;1267;98033;-81
2023/11/26 11:26:06;;;;;;;13.80;8.30;;;;;;;0.46;80.51;99311.68;130115;1270;98764;-81
2023/11/26 11:29:32;;;;;;;14.60;8.40;;;;;;;0.60;80.35;99315.20;130235;1267;99298;-82
2023/11/26 11:33:04;;;;;;;12.10;7.40;;;;;;;0.67;79.86;99314.89;129973;1267;97958;-82
2023/11/26 11:36:30;;;;;;;10.10;6.10;;;;;;;0.63;78.45;99326.17;131789;1265;97981;-82
2023/11/26 11:39:49;;;;;;;10.60;7.10;;;;;;;0.39;77.88;99317.81;130418;1268;98045;-82
2023/11/26 11:43:15;;;;;;;11.60;7.40;;;;;;;0.42;79.88;99316.69;130333;1268;97990;-80
2023/11/26 11:46:48;;;;;;;12.30;6.70;;;;;;;0.49;79.90;99319.20;130509;1266;98006;-80
2023/11/26 11:50:10;;;;;;;;;;;;;;;0.54;79.63;99323.89;130261;1270;99183;-82
2023/11/26 11:53:16;;;;;;;54.90;26.00;;;;;;;0.60;80.25;99323.62;130144;1271;97980;-81
2023/11/26 11:56:22;;;;;;;71.80;31.40;;;;;;;0.75;81.35;99328.50;130321;1269;98736;-82
2023/11/26 11:59:28;;;;;;;88.90;38.40;;;;;;;0.90;81.05;99328.06;129856;1271;150657;-81
2023/11/26 12:02:36;;;;;;;17.40;9.70;;;;;;;1.00;80.60;99334.84;130427;1267;97978;-82
2023/11/26 12:05:41;;;;;;;18.60;11.10;;;;;;;0.94;79.47;99335.64;129978;1269;97911;-83
2023/11/26 12:08:56;;;;;;;22.20;13.70;;;;;;;0.89;80.31;99334.83;129964;1270;97979;-81
2023/11/26 12:12:02;;;;;;;20.90;14.10;;;;;;;0.94;81.12;99329.34;130079;1268;98058;-81
2023/11/26 12:15:11;;;;;;;13.40;7.50;;;;;;;1.01;80.99;99332.28;130009;1267;98000;-81
2023/11/26 12:18:19;;;;;;;15.80;9.00;;;;;;;0.86;79.37;99335.54;130004;1268;97971;-82
2023/11/26 12:21:24;;;;;;;34.10;18.00;;;;;;;0.72;80.17;99340.23;130084;1270;98004;-82
2023/11/26 12:24:43;;;;;;;10.40;6.30;;;;;;;0.63;80.55;99347.00;130196;1270;99028;-83
2023/11/26 12:27:50;;;;;;;15.10;8.40;;;;;;;0.57;80.45;99346.73;130290;1267;99030;-81
2023/11/26 12:31:01;;;;;;;11.00;6.20;;;;;;;0.59;80.00;99348.55;130060;1270;98784;-81
2023/11/26 12:34:07;;;;;;;14.50;8.70;;;;;;;0.59;79.90;99348.39;129930;1270;98758;-81
2023/11/26 12:37:13;;;;;;;22.40;11.60;;;;;;;0.55;78.66;99346.04;129982;1265;98602;-81
2023/11/26 12:40:19;;;;;;;8.80;5.20;;;;;;;0.49;78.43;99348.60;129973;1267;99050;-82
2023/11/26 12:43:26;;;;;;;7.80;4.90;;;;;;;0.43;77.89;99348.14;129912;1267;98066;-81
2023/11/26 12:46:32;;;;;;;7.20;5.00;;;;;;;0.39;78.69;99346.81;129923;1266;97981;-81
2023/11/26 12:49:38;;;;;;;8.50;5.50;;;;;;;0.37;78.98;99348.66;129972;1267;99156;-81
2023/11/26 12:52:44;;;;;;;10.20;6.00;;;;;;;0.39;79.68;99352.80;129914;1268;98240;-81
2023/11/26 12:55:50;;;;;;;16.30;9.60;;;;;;;0.37;78.78;99349.26;130027;1270;99157;-83
2023/11/26 12:59:02;;;;;;;97.70;47.90;;;;;;;0.34;79.74;99350.69;130050;1267;98113;-81
2023/11/26 13:02:15;;;;;;;14.40;7.50;;;;;;;0.39;79.47;99352.58;130051;1270;99201;-82
2023/11/26 13:05:29;;;;;;;25.40;13.70;;;;;;;0.41;79.19;99351.92;129982;1265;97978;-82
2023/11/26 13:08:35;;;;;;;89.00;51.60;;;;;;;0.44;79.06;99354.89;129917;1270;97965;-80
2023/11/26 13:11:41;;;;;;;19.80;10.50;;;;;;;0.44;78.38;99356.83;130030;1269;98013;-82
2023/11/26 13:14:48;;;;;;;9.10;5.70;;;;;;;0.39;78.38;99352.94;129902;1270;97994;-82
2023/11/26 13:17:56;;;;;;;9.70;5.10;;;;;;;0.37;78.32;99354.98;130002;1270;97987;-81
2023/11/26 13:21:05;;;;;;;6.50;4.20;;;;;;;0.40;78.60;99354.28;130050;1268;99119;-81
2023/11/26 13:24:11;;;;;;;82.70;39.30;;;;;;;0.44;78.94;99355.04;130011;1271;97981;-81
2023/11/26 13:27:16;;;;;;;20.80;10.30;;;;;;;0.46;78.82;99359.27;130064;1270;99065;-81
2023/11/26 13:30:22;;;;;;;9.20;5.50;;;;;;;0.43;78.78;99368.25;129949;1270;98056;-80
2023/11/26 13:33:27;;;;;;;8.50;5.30;;;;;;;0.36;78.86;99361.25;129928;1267;97969;-84
2023/11/26 13:36:33;;;;;;;9.30;6.70;;;;;;;0.41;79.49;99356.65;129910;1268;98548;-82
2023/11/26 13:39:39;;;;;;;8.90;5.20;;;;;;;0.50;79.38;99351.30;129941;1270;99057;-82
2023/11/26 13:42:44;;;;;;;8.00;4.90;;;;;;;0.50;79.03;99355.14;130515;1268;97862;-83
2023/11/26 13:45:51;;;;;;;7.80;4.80;;;;;;;0.36;77.53;99359.45;130008;1267;98090;-84
2023/11/26 13:48:59;;;;;;;10.70;6.60;;;;;;;0.23;77.64;99356.70;130162;1269;98717;-84
2023/11/26 13:52:05;;;;;;;14.00;8.20;;;;;;;0.18;78.51;99356.89;130295;1268;97986;-83
2023/11/26 13:55:11;;;;;;;24.60;17.00;;;;;;;0.17;78.67;99355.59;130190;1267;98026;-83
2023/11/26 13:58:17;;;;;;;15.30;8.40;;;;;;;0.12;78.11;99353.64;130051;1268;98445;-82
2023/11/26 14:01:23;;;;;;;20.00;10.80;;;;;;;0.00;78.34;99354.83;130622;1267;97999;-84
2023/11/26 14:04:28;;;;;;;49.40;30.40;;;;;;;-0.09;78.73;99357.77;130076;1269;97981;-83
2023/11/26 14:07:34;;;;;;;38.90;23.50;;;;;;;-0.14;78.79;99362.11;130396;1269;97981;-84
2023/11/26 14:10:41;;;;;;;27.10;15.90;;;;;;;-0.18;78.93;99372.00;130092;1268;99049;-83
2023/11/26 14:13:47;;;;;;;38.70;21.10;;;;;;;-0.22;78.94;99378.95;130532;1268;97994;-82
2023/11/26 14:16:52;;;;;;;38.40;19.60;;;;;;;-0.28;78.80;99376.58;130399;1267;98002;-82
2023/11/26 14:19:58;;;;;;;62.90;32.30;;;;;;;-0.33;78.87;99371.66;130216;1269;98120;-82
2023/11/26 14:23:06;;;;;;;58.80;33.80;;;;;;;-0.30;79.45;99367.63;130239;1267;99057;-81
2023/11/26 14:26:12;;;;;;;37.40;20.10;;;;;;;-0.17;79.46;99377.34;130065;1268;97978;-83